Time;durP1;ratioP1;P1;durP2;ratioP2;P2;SDS_P1;SDS_P2;PMS_P1;PMS_P2;Temp;Humidity;BMP_temperature;BMP_pressure;BME280_temperature;BME280_humidity;BME280_pressure;Samples;Min_cycle;Max_cycle;Signal;HPM_P1;HPM_P2
2021/04/19 00:01:34;;;;;;;89.03;53.42;;;6.30;99.90;;;;;;5135290;27;20062;-74
2021/04/19 00:04:00;;;;;;;71.70;45.53;;;6.20;99.90;;;;;;5135182;27;20024;-72
2021/04/19 00:06:26;;;;;;;70.65;44.60;;;6.20;99.90;;;;;;5135114;27;20033;-71
2021/04/19 00:08:52;;;;;;;69.85;40.65;;;6.20;99.90;;;;;;5134907;27;20057;-71
2021/04/19 00:11:18;;;;;;;65.00;40.83;;;6.20;99.90;;;;;;5116687;27;20023;-72
2021/04/19 00:13:44;;;;;;;62.00;40.15;;;6.10;99.90;;;;;;5135050;27;20031;-71
2021/04/19 00:16:10;;;;;;;61.80;39.95;;;6.10;99.90;;;;;;5134902;27;20363;-71
2021/04/19 00:18:36;;;;;;;59.22;36.83;;;6.10;99.90;;;;;;5134984;27;20088;-72
2021/04/19 00:21:03;;;;;;;61.67;37.15;;;6.10;99.90;;;;;;5116461;27;20102;-73
2021/04/19 00:23:29;;;;;;;56.65;36.10;;;6.20;99.90;;;;;;5116386;27;20402;-72
2021/04/19 00:25:55;;;;;;;52.90;34.83;;;6.20;99.90;;;;;;5134756;27;20039;-73
2021/04/19 00:28:20;;;;;;;47.58;31.10;;;6.30;99.90;;;;;;5134923;27;20051;-73
2021/04/19 00:30:46;;;;;;;45.28;30.50;;;6.20;99.90;;;;;;5134419;27;20040;-73
2021/04/19 00:33:12;;;;;;;39.92;27.63;;;6.30;99.90;;;;;;5115948;27;20027;-73
2021/04/19 00:35:39;;;;;;;45.17;30.95;;;6.30;99.90;;;;;;5115946;27;20467;-73
2021/04/19 00:38:05;;;;;;;38.95;28.10;;;6.40;99.90;;;;;;5116160;27;20046;-73
2021/04/19 00:40:31;;;;;;;42.88;28.48;;;6.40;99.90;;;;;;5116123;27;20024;-73
2021/04/19 00:42:57;;;;;;;46.33;30.90;;;6.40;99.90;;;;;;5116015;27;20076;-74
2021/04/19 00:45:24;;;;;;;46.70;31.05;;;6.50;99.90;;;;;;5134176;27;20039;-74
2021/04/19 00:47:50;;;;;;;46.35;30.83;;;6.50;99.90;;;;;;5115899;27;20023;-72
2021/04/19 00:50:21;;;;;;;48.40;34.10;;;6.50;99.90;;;;;;5115911;27;20398;-73
2021/04/19 00:52:48;;;;;;;53.83;35.53;;;6.50;99.90;;;;;;5115988;27;20463;-73
2021/04/19 00:55:15;;;;;;;50.33;34.00;;;6.60;99.90;;;;;;5134255;27;20073;-72
2021/04/19 00:57:42;;;;;;;44.22;30.38;;;6.60;99.90;;;;;;5134038;27;20032;-71
2021/04/19 01:00:11;;;;;;;32.78;22.90;;;6.50;99.90;;;;;;5115798;27;20114;-73
2021/04/19 01:02:41;;;;;;;35.22;23.17;;;6.50;99.90;;;;;;5115811;27;20072;-73
2021/04/19 01:05:21;;;;;;;39.28;23.27;;;6.50;99.90;;;;;;5134509;27;20049;-73
2021/04/19 01:07:46;;;;;;;39.47;25.77;;;6.50;99.90;;;;;;5115476;27;20031;-72
2021/04/19 01:10:12;;;;;;;30.48;21.58;;;6.50;99.90;;;;;;5115601;28;20027;-72
2021/04/19 01:12:38;;;;;;;35.97;22.27;;;6.50;99.90;;;;;;5134363;27;20066;-74
2021/04/19 01:15:05;;;;;;;34.63;21.80;;;6.50;99.90;;;;;;5133810;27;20035;-72
2021/04/19 01:17:31;;;;;;;39.83;27.50;;;6.50;99.90;;;;;;5115721;28;20031;-71
2021/04/19 01:19:57;;;;;;;42.92;29.92;;;6.50;99.90;;;;;;5134087;28;20023;-70
2021/04/19 01:22:23;;;;;;;40.47;27.30;;;6.50;99.90;;;;;;5134294;28;20349;-72
2021/04/19 01:24:49;;;;;;;36.63;25.33;;;6.50;99.90;;;;;;5115602;28;20485;-71
2021/04/19 01:27:15;;;;;;;53.17;30.42;;;6.50;99.90;;;;;;5115093;28;20047;-69
2021/04/19 01:29:41;;;;;;;53.58;34.00;;;6.40;99.90;;;;;;5133719;28;20031;-69
2021/04/19 01:32:07;;;;;;;60.28;35.30;;;6.40;99.90;;;;;;5133940;28;20027;-69
2021/04/19 01:34:33;;;;;;;62.97;35.45;;;6.50;99.90;;;;;;5133918;28;20026;-70
2021/04/19 01:36:59;;;;;;;60.28;37.95;;;6.50;99.90;;;;;;5133856;28;20027;-70
2021/04/19 01:39:25;;;;;;;55.15;35.92;;;6.50;99.90;;;;;;5115448;28;20420;-70
2021/04/19 01:41:51;;;;;;;53.20;33.83;;;6.40;99.90;;;;;;5134123;28;20036;-70
2021/04/19 01:44:17;;;;;;;55.08;33.63;;;6.40;99.90;;;;;;5133808;28;20114;-71
2021/04/19 01:46:43;;;;;;;50.45;30.55;;;6.40;99.90;;;;;;5114986;28;20060;-70
2021/04/19 01:49:15;;;;;;;42.83;28.15;;;6.40;99.90;;;;;;5115398;28;20034;-70
2021/04/19 01:51:41;;;;;;;36.72;25.77;;;6.40;99.90;;;;;;5133758;28;20054;-70
2021/04/19 01:54:07;;;;;;;38.20;26.80;;;6.40;99.90;;;;;;5134008;28;20112;-69
2021/04/19 01:56:33;;;;;;;38.28;27.10;;;6.40;99.90;;;;;;5133631;28;20061;-71
2021/04/19 01:59:01;;;;;;;38.65;24.95;;;6.40;99.90;;;;;;5135971;27;20427;-70
2021/04/19 02:01:28;;;;;;;37.58;26.23;;;6.30;99.90;;;;;;5137678;27;20031;-69
2021/04/19 02:04:04;;;;;;;34.80;24.35;;;6.30;99.90;;;;;;5119194;27;20543;-68
2021/04/19 02:06:38;;;;;;;37.38;24.63;;;6.30;99.90;;;;;;5119194;27;20493;-70
2021/04/19 02:09:22;;;;;;;35.88;23.98;;;6.20;99.90;;;;;;5137613;27;20038;-70
2021/04/19 02:11:57;;;;;;;46.10;29.23;;;6.20;99.90;;;;;;5119019;27;20491;-69
2021/04/19 02:15:02;;;;;;;43.75;28.17;;;6.20;99.90;;;;;;5137508;27;20027;-69
2021/04/19 02:17:37;;;;;;;39.47;27.00;;;6.30;99.90;;;;;;5063161;27;20486;-69
2021/04/19 02:20:27;;;;;;;36.88;25.92;;;6.30;99.90;;;;;;5118921;27;20034;-72
2021/04/19 02:22:59;;;;;;;33.17;23.02;;;6.30;99.90;;;;;;5137304;27;20034;-70
2021/04/19 02:25:31;;;;;;;32.55;22.42;;;6.40;99.90;;;;;;5137303;27;20053;-70
2021/04/19 02:28:05;;;;;;;35.78;24.38;;;6.50;99.90;;;;;;5118566;27;20389;-69
2021/04/19 02:30:35;;;;;;;33.70;22.80;;;6.50;99.90;;;;;;5136856;27;20370;-71
2021/04/19 02:33:03;;;;;;;31.63;22.95;;;6.50;99.90;;;;;;5136771;27;20451;-71
2021/04/19 02:35:33;;;;;;;30.85;21.85;;;6.50;99.90;;;;;;5118435;27;20072;-71
2021/04/19 02:37:59;;;;;;;31.05;22.30;;;6.50;99.90;;;;;;5118604;27;20046;-72
2021/04/19 02:40:27;;;;;;;36.05;23.23;;;6.60;99.90;;;;;;5118427;27;20028;-72
2021/04/19 02:42:55;;;;;;;34.60;22.08;;;6.60;99.90;;;;;;5136850;27;20068;-73
2021/04/19 02:45:22;;;;;;;28.27;21.75;;;6.60;99.90;;;;;;5137156;27;20038;-73
2021/04/19 02:47:49;;;;;;;29.83;21.88;;;6.50;99.90;;;;;;5118220;27;20370;-73
2021/04/19 02:50:17;;;;;;;29.85;22.45;;;6.60;99.90;;;;;;5136728;27;20030;-70
2021/04/19 02:52:44;;;;;;;33.08;20.45;;;6.50;99.90;;;;;;5136684;27;20027;-71
2021/04/19 02:55:12;;;;;;;28.30;19.55;;;6.50;99.90;;;;;;5136531;27;20083;-72
2021/04/19 02:57:50;;;;;;;30.45;19.50;;;6.50;99.90;;;;;;5118142;27;20027;-71
2021/04/19 03:00:20;;;;;;;34.13;22.13;;;6.50;99.90;;;;;;5118132;27;20371;-71
2021/04/19 03:02:46;;;;;;;32.60;22.23;;;6.50;99.90;;;;;;5136743;27;20031;-71
2021/04/19 03:05:13;;;;;;;38.15;23.40;;;6.50;99.90;;;;;;5136453;27;20126;-70
2021/04/19 03:07:46;;;;;;;31.88;20.55;;;6.50;99.90;;;;;;5136452;27;20023;-72
2021/04/19 03:10:16;;;;;;;30.48;21.17;;;6.50;99.90;;;;;;5136016;27;20050;-70
2021/04/19 03:12:44;;;;;;;33.78;24.10;;;6.50;99.90;;;;;;5136282;27;20023;-72
2021/04/19 03:15:17;;;;;;;34.10;24.77;;;6.50;99.90;;;;;;5136227;27;20375;-73
2021/04/19 03:17:44;;;;;;;32.95;22.63;;;6.50;99.90;;;;;;5117626;27;20027;-73
2021/04/19 03:20:17;;;;;;;34.70;23.95;;;6.40;99.90;;;;;;5117710;27;20023;-74
2021/04/19 03:22:47;;;;;;;35.53;23.92;;;6.40;99.90;;;;;;5136165;27;20027;-71
2021/04/19 03:25:14;;;;;;;36.17;24.33;;;6.50;99.90;;;;;;5117798;27;20114;-70
2021/04/19 03:27:43;;;;;;;43.35;28.77;;;6.50;99.90;;;;;;5117280;27;20050;-74
2021/04/19 03:30:11;;;;;;;42.13;27.83;;;6.50;99.90;;;;;;5135975;27;20039;-72
2021/04/19 03:32:41;;;;;;;34.30;23.70;;;6.50;99.90;;;;;;5135966;27;20051;-71
2021/04/19 03:35:11;;;;;;;35.38;23.23;;;6.50;99.90;;;;;;5135926;27;20023;-71
2021/04/19 03:37:40;;;;;;;34.88;25.98;;;6.50;99.90;;;;;;5135746;27;20027;-72
2021/04/19 03:40:11;;;;;;;43.55;25.83;;;6.50;99.90;;;;;;5117336;27;20051;-73
2021/04/19 03:42:41;;;;;;;43.65;28.35;;;6.60;99.90;;;;;;5135764;27;20076;-71
2021/04/19 03:45:09;;;;;;;38.05;25.08;;;6.60;99.90;;;;;;5117095;27;20031;-71
2021/04/19 03:47:37;;;;;;;40.58;25.02;;;6.60;99.90;;;;;;5135273;27;20076;-74
2021/04/19 03:50:05;;;;;;;37.45;24.85;;;6.70;99.90;;;;;;5135627;27;20460;-72
2021/04/19 03:52:35;;;;;;;34.80;25.00;;;6.70;99.90;;;;;;5135415;27;20023;-72
2021/04/19 03:55:02;;;;;;;34.42;23.58;;;6.70;99.90;;;;;;5135523;27;20375;-72
2021/04/19 03:57:30;;;;;;;36.00;23.15;;;6.80;99.90;;;;;;5135373;27;20035;-72
2021/04/19 04:00:09;;;;;;;47.92;23.95;;;6.70;99.90;;;;;;5116946;27;20023;-73
2021/04/19 04:02:37;;;;;;;41.17;24.92;;;6.80;99.90;;;;;;5135257;27;20069;-73
2021/04/19 04:05:06;;;;;;;36.88;23.15;;;6.80;99.90;;;;;;5116864;27;20027;-72
2021/04/19 04:07:34;;;;;;;37.30;23.17;;;6.80;99.90;;;;;;5135165;27;20052;-71
2021/04/19 04:10:03;;;;;;;34.60;22.65;;;6.90;99.90;;;;;;5135274;27;20058;-73
2021/04/19 04:12:28;;;;;;;38.20;24.98;;;6.90;99.90;;;;;;5135389;27;20542;-71
2021/04/19 04:14:56;;;;;;;37.83;24.42;;;6.90;99.90;;;;;;5116283;27;20113;-72
2021/04/19 04:17:23;;;;;;;37.03;23.30;;;6.90;99.90;;;;;;5135004;27;20034;-72
2021/04/19 04:19:49;;;;;;;34.95;23.98;;;7.00;99.90;;;;;;5134592;27;20403;-73
2021/04/19 04:22:16;;;;;;;35.20;22.98;;;7.00;99.90;;;;;;5134069;27;20104;-71
2021/04/19 04:24:44;;;;;;;30.92;21.52;;;7.00;99.90;;;;;;5134903;27;20061;-71
2021/04/19 04:27:10;;;;;;;28.40;19.95;;;6.90;99.90;;;;;;5134600;27;20043;-68
2021/04/19 04:29:37;;;;;;;33.75;21.30;;;7.00;99.90;;;;;;5134413;27;20359;-71
2021/04/19 04:32:03;;;;;;;34.15;23.10;;;7.00;99.90;;;;;;5116277;27;20057;-70
2021/04/19 04:34:29;;;;;;;47.50;29.55;;;6.90;99.90;;;;;;5134889;27;20031;-71
2021/04/19 04:36:55;;;;;;;45.17;26.95;;;6.90;99.90;;;;;;5134682;27;20031;-69
2021/04/19 04:39:22;;;;;;;35.88;25.00;;;6.90;99.90;;;;;;5134696;27;20054;-70
2021/04/19 04:41:48;;;;;;;38.42;24.63;;;6.90;99.90;;;;;;5134535;27;20027;-69
2021/04/19 04:44:18;;;;;;;33.70;24.42;;;6.90;99.90;;;;;;5115791;27;20026;-71
2021/04/19 04:47:01;;;;;;;37.83;23.92;;;7.00;99.90;;;;;;5116073;27;20027;-70
2021/04/19 04:49:37;;;;;;;33.55;21.42;;;7.00;99.90;;;;;;5134449;27;20019;-70
2021/04/19 04:52:06;;;;;;;35.10;22.63;;;7.00;99.90;;;;;;5134264;27;20024;-71
2021/04/19 04:54:32;;;;;;;32.42;23.27;;;;;;;;;;5134352;27;20148;-70
2021/04/19 04:57:01;;;;;;;47.67;29.23;;;7.10;99.90;;;;;;5115796;27;20032;-70
2021/04/19 04:59:29;;;;;;;127.22;86.20;;;7.20;99.90;;;;;;5134001;27;20041;-70
2021/04/19 05:01:56;;;;;;;55.38;36.08;;;7.20;99.90;;;;;;5134229;27;20118;-71
2021/04/19 05:04:24;;;;;;;41.45;23.67;;;7.30;99.90;;;;;;5134246;27;20027;-69
2021/04/19 05:06:51;;;;;;;29.58;20.80;;;7.40;99.90;;;;;;5134188;27;20031;-72
2021/04/19 05:09:17;;;;;;;33.80;22.20;;;7.40;99.90;;;;;;5115761;27;20540;-71
2021/04/19 05:11:43;;;;;;;32.15;20.77;;;7.50;99.90;;;;;;5115293;27;20046;-72
2021/04/19 05:14:09;;;;;;;31.88;21.20;;;7.50;99.90;;;;;;5115584;27;20030;-72
2021/04/19 05:16:35;;;;;;;38.70;24.45;;;7.60;99.90;;;;;;5133928;27;20039;-71
2021/04/19 05:19:06;;;;;;;60.60;36.25;;;7.60;99.90;;;;;;5133721;27;20023;-73
2021/04/19 05:21:33;;;;;;;73.28;42.33;;;7.60;99.90;;;;;;5115687;28;20455;-71
2021/04/19 05:24:00;;;;;;;78.47;43.83;;;7.70;99.90;;;;;;5133929;28;20168;-71
2021/04/19 05:26:26;;;;;;;72.82;43.70;;;7.80;99.90;;;;;;5133730;28;20079;-70
2021/04/19 05:28:53;;;;;;;72.57;42.90;;;7.90;99.90;;;;;;5133958;28;20050;-72
2021/04/19 05:31:20;;;;;;;68.90;39.45;;;8.00;99.90;;;;;;5133900;28;20027;-71
2021/04/19 05:33:46;;;;;;;49.22;30.50;;;8.10;99.90;;;;;;5119533;27;20122;-73
2021/04/19 05:36:13;;;;;;;60.42;35.47;;;8.30;99.90;;;;;;5138035;27;20072;-73
2021/04/19 05:38:42;;;;;;;72.13;40.15;;;8.30;99.90;;;;;;5137985;27;20023;-70
2021/04/19 05:41:14;;;;;;;71.28;41.05;;;8.40;99.90;;;;;;5119616;27;20514;-71
2021/04/19 05:43:44;;;;;;;48.13;29.70;;;8.40;99.90;;;;;;5137964;27;20513;-71
2021/04/19 05:46:15;;;;;;;34.15;22.95;;;8.50;99.90;;;;;;5137909;27;20019;-71
2021/04/19 05:48:42;;;;;;;24.13;17.50;;;8.50;99.90;;;;;;5137879;27;20027;-70
2021/04/19 05:51:24;;;;;;;24.90;17.10;;;8.60;99.90;;;;;;5137754;27;20110;-72
2021/04/19 05:53:55;;;;;;;23.15;17.15;;;8.70;99.90;;;;;;5119360;27;20122;-72
2021/04/19 05:57:05;;;;;;;23.75;17.33;;;8.80;99.90;;;;;;5137744;27;20031;-71
2021/04/19 06:00:01;;;;;;;26.27;18.73;;;8.90;99.90;;;;;;5098639;27;20036;-70
2021/04/19 06:02:49;;;;;;;33.72;22.15;;;8.90;99.90;;;;;;5137659;27;20027;-73
2021/04/19 06:05:21;;;;;;;24.50;16.58;;;8.90;99.90;;;;;;5137728;27;20035;-73
2021/04/19 06:07:52;;;;;;;;;;;9.00;99.90;;;;;;5138069;27;20162;-71
2021/04/19 06:10:35;;;;;;;21.23;16.15;;;9.10;99.90;;;;;;5137486;27;19903;-72
2021/04/19 06:13:02;;;;;;;26.20;18.65;;;9.00;99.90;;;;;;5137443;27;20035;-74
2021/04/19 06:15:29;;;;;;;46.85;27.20;;;9.10;99.90;;;;;;5135374;27;20016;-72
2021/04/19 06:17:56;;;;;;;23.10;16.95;;;9.00;99.90;;;;;;5135658;27;20080;-71
2021/04/19 06:20:23;;;;;;;22.17;16.13;;;9.10;99.90;;;;;;5118587;27;20023;-70
2021/04/19 06:22:50;;;;;;;26.70;17.45;;;9.10;99.90;;;;;;5137058;27;20030;-73
2021/04/19 06:25:18;;;;;;;22.42;16.17;;;9.20;99.90;;;;;;5137241;27;20525;-72
2021/04/19 06:27:44;;;;;;;25.85;16.45;;;9.20;99.90;;;;;;5137122;27;20043;-77
2021/04/19 06:30:19;;;;;;;27.83;17.98;;;9.20;99.90;;;;;;5118605;27;20023;-70
2021/04/19 06:32:47;;;;;;;25.73;17.27;;;9.30;99.90;;;;;;5136459;27;20031;-74
2021/04/19 06:35:15;;;;;;;27.95;18.10;;;9.30;99.90;;;;;;5136893;27;20084;-74
2021/04/19 06:37:41;;;;;;;25.13;16.52;;;9.30;99.90;;;;;;5117989;27;20087;-75
2021/04/19 06:40:08;;;;;;;20.27;15.75;;;9.30;99.90;;;;;;5136155;27;20461;-73
2021/04/19 06:42:34;;;;;;;20.30;14.45;;;9.30;99.90;;;;;;5118280;27;20023;-73
2021/04/19 06:45:03;;;;;;;25.95;16.90;;;9.30;99.90;;;;;;5134382;27;20029;-74
2021/04/19 06:47:31;;;;;;;24.00;15.73;;;9.30;99.90;;;;;;5117487;27;20126;-74
2021/04/19 06:49:58;;;;;;;23.92;16.83;;;9.30;99.90;;;;;;5136279;27;20023;-73
2021/04/19 06:52:25;;;;;;;27.45;17.73;;;9.30;99.90;;;;;;5136316;27;20110;-74
2021/04/19 06:54:51;;;;;;;29.20;18.38;;;9.40;99.90;;;;;;5135248;27;20494;-74
2021/04/19 06:57:18;;;;;;;36.20;20.25;;;9.50;99.90;;;;;;5136180;27;20034;-75
2021/04/19 06:59:45;;;;;;;24.13;16.55;;;9.60;99.90;;;;;;5135119;27;20103;-73
2021/04/19 07:02:19;;;;;;;31.00;18.65;;;9.70;99.90;;;;;;5134931;27;20019;-73
2021/04/19 07:04:45;;;;;;;27.33;18.95;;;9.80;99.90;;;;;;5136146;27;20042;-71
2021/04/19 07:07:17;;;;;;;24.38;17.80;;;9.90;99.90;;;;;;5134747;27;20046;-73
2021/04/19 07:09:45;;;;;;;25.75;17.98;;;9.90;99.90;;;;;;5136064;27;20028;-73
2021/04/19 07:12:18;;;;;;;27.58;18.85;;;10.00;99.90;;;;;;5135676;27;20050;-74
2021/04/19 07:14:48;;;;;;;31.20;19.35;;;10.10;99.90;;;;;;5134616;27;20027;-73
2021/04/19 07:17:14;;;;;;;28.33;20.85;;;10.10;99.90;;;;;;5136126;27;20051;-74
2021/04/19 07:19:40;;;;;;;33.85;21.95;;;10.20;99.90;;;;;;5135956;27;20031;-73
2021/04/19 07:22:08;;;;;;;34.05;22.00;;;10.40;99.90;;;;;;5135762;27;20374;-73
2021/04/19 07:24:34;;;;;;;59.53;37.15;;;10.60;99.90;;;;;;5135946;27;20019;-72
2021/04/19 07:27:03;;;;;;;30.67;20.80;;;10.70;99.90;;;;;;5135381;27;20043;-73
2021/04/19 07:29:29;;;;;;;37.70;23.88;;;10.90;99.90;;;;;;5134261;27;20034;-72
2021/04/19 07:31:57;;;;;;;36.70;22.42;;;10.90;99.90;;;;;;5135708;27;20023;-72
2021/04/19 07:34:26;;;;;;;34.15;21.83;;;10.80;99.90;;;;;;5134432;27;20023;-71
2021/04/19 07:36:58;;;;;;;32.67;23.77;;;10.90;99.90;;;;;;5135613;27;20248;-71
2021/04/19 07:39:26;;;;;;;39.75;26.15;;;11.00;99.90;;;;;;5134439;27;20080;-72
2021/04/19 07:41:57;;;;;;;27.83;20.48;;;11.40;99.90;;;;;;5135204;27;20094;-72
2021/04/19 07:44:36;;;;;;;28.50;18.70;;;11.50;99.90;;;;;;5134307;27;20023;-72
2021/04/19 07:47:40;;;;;;;27.45;19.23;;;11.60;98.80;;;;;;5135631;27;20413;-74
2021/04/19 07:50:23;;;;;;;35.22;23.55;;;11.70;98.90;;;;;;5064633;28;20036;-71
2021/04/19 07:53:08;;;;;;;22.58;17.27;;;11.90;98.60;;;;;;5047680;28;20033;-73
2021/04/19 07:55:47;;;;;;;23.13;16.23;;;12.10;99.00;;;;;;5050744;28;20107;-73
2021/04/19 07:58:21;;;;;;;22.45;15.75;;;12.40;97.90;;;;;;5035035;28;20477;-71
2021/04/19 08:00:48;;;;;;;22.50;15.35;;;12.80;97.40;;;;;;5050886;28;20119;-72
2021/04/19 08:03:18;;;;;;;26.67;17.58;;;12.80;96.60;;;;;;5034292;28;20079;-72
2021/04/19 08:05:55;;;;;;;21.50;15.65;;;13.30;96.10;;;;;;5048745;28;20087;-71
2021/04/19 08:08:36;;;;;;;18.52;14.85;;;13.50;95.80;;;;;;5034885;28;20033;-69
2021/04/19 08:11:20;;;;;;;16.48;13.27;;;13.50;93.80;;;;;;5034892;28;20036;-73
2021/04/19 08:13:47;;;;;;;11.40;8.48;;;13.50;92.90;;;;;;5034717;28;20028;-72
2021/04/19 08:16:16;;;;;;;20.30;14.55;;;13.20;92.00;;;;;;5034593;28;20040;-71
2021/04/19 08:18:43;;;;;;;22.85;16.75;;;13.20;93.80;;;;;;5051394;28;20477;-75
2021/04/19 08:21:10;;;;;;;24.40;18.30;;;13.50;96.30;;;;;;5051364;28;20090;-71
2021/04/19 08:23:43;;;;;;;23.92;15.57;;;13.10;93.90;;;;;;5034677;28;20025;-70
2021/04/19 08:26:10;;;;;;;16.88;11.98;;;12.90;93.40;;;;;;5068807;27;20031;-70
2021/04/19 08:28:44;;;;;;;15.15;11.95;;;12.70;93.60;;;;;;5134820;27;20118;-72
2021/04/19 08:31:11;;;;;;;19.45;14.02;;;12.90;93.80;;;;;;5116426;27;20062;-72
2021/04/19 08:33:38;;;;;;;13.18;9.68;;;;;;;;;;5116044;27;20119;-73
2021/04/19 08:36:09;;;;;;;7.72;6.93;;;13.60;90.20;;;;;;5116169;27;20027;-74
2021/04/19 08:38:36;;;;;;;16.85;12.77;;;13.20;90.10;;;;;;5134644;27;20046;-73
2021/04/19 08:41:02;;;;;;;15.93;10.68;;;13.60;92.70;;;;;;5134573;27;20027;-72
2021/04/19 08:43:29;;;;;;;18.17;13.65;;;14.00;92.00;;;;;;5134369;27;20031;-72
2021/04/19 08:45:57;;;;;;;19.45;13.50;;;14.00;91.30;;;;;;5134785;27;20030;-73
2021/04/19 08:48:24;;;;;;;13.00;11.20;;;14.10;93.00;;;;;;5134249;27;20050;-73
2021/04/19 08:50:53;;;;;;;14.98;9.40;;;13.70;90.40;;;;;;5134411;27;20027;-73
2021/04/19 08:53:20;;;;;;;21.30;15.65;;;13.50;90.70;;;;;;5134379;27;20026;-74
2021/04/19 08:55:48;;;;;;;17.30;11.38;;;13.90;91.40;;;;;;5134187;27;20511;-73
2021/04/19 08:58:16;;;;;;;18.63;11.75;;;14.00;90.70;;;;;;5134293;27;20034;-73
2021/04/19 09:00:46;;;;;;;16.15;12.18;;;13.90;88.60;;;;;;5134257;27;20055;-73
2021/04/19 09:03:16;;;;;;;15.63;12.00;;;14.00;88.70;;;;;;5134336;27;20020;-72
2021/04/19 09:05:42;;;;;;;14.75;11.15;;;13.60;88.80;;;;;;5134237;27;20045;-73
2021/04/19 09:08:15;;;;;;;11.65;10.20;;;13.80;90.00;;;;;;5133320;27;20399;-72
2021/04/19 09:11:06;;;;;;;15.02;11.18;;;13.90;86.60;;;;;;5134160;27;20593;-73
2021/04/19 09:13:34;;;;;;;13.98;11.35;;;13.60;85.60;;;;;;5134160;27;20034;-73
2021/04/19 09:16:23;;;;;;;14.68;11.68;;;13.80;86.50;;;;;;5133940;27;20027;-72
2021/04/19 09:18:57;;;;;;;17.00;11.68;;;13.90;86.90;;;;;;5115629;28;20027;-75
2021/04/19 09:21:49;;;;;;;13.68;10.57;;;13.90;84.70;;;;;;5133974;28;20023;-73
2021/04/19 09:24:20;;;;;;;12.93;9.50;;;13.90;84.10;;;;;;5115598;28;20038;-74
2021/04/19 09:27:01;;;;;;;12.02;9.52;;;13.90;83.60;;;;;;5115018;28;20451;-70
2021/04/19 09:29:28;;;;;;;9.23;7.88;;;14.20;80.90;;;;;;5133965;28;20436;-71
2021/04/19 09:32:06;;;;;;;7.75;6.05;;;14.30;78.70;;;;;;5115614;28;20065;-73
2021/04/19 09:34:49;;;;;;;6.40;5.72;;;14.30;78.10;;;;;;5133812;28;20038;-71
2021/04/19 09:37:43;;;;;;;10.05;7.93;;;14.50;75.40;;;;;;5134146;28;20028;-71
2021/04/19 09:40:21;;;;;;;12.60;9.43;;;14.20;78.30;;;;;;5114991;28;20058;-71
2021/04/19 09:42:56;;;;;;;10.80;9.43;;;13.90;80.60;;;;;;5133910;28;20027;-72
2021/04/19 09:45:41;;;;;;;11.10;9.18;;;13.80;83.20;;;;;;5115406;28;20029;-69
2021/04/19 09:48:22;;;;;;;11.23;8.32;;;13.60;81.20;;;;;;5133718;28;20031;-73
2021/04/19 09:50:48;;;;;;;13.80;10.30;;;13.40;81.60;;;;;;5134798;28;20498;-72
2021/04/19 09:53:17;;;;;;;19.92;14.15;;;13.50;84.30;;;;;;5133459;28;20027;-73
2021/04/19 09:55:43;;;;;;;23.40;12.60;;;13.50;85.60;;;;;;5133612;28;20023;-69
2021/04/19 09:58:10;;;;;;;11.10;9.38;;;13.70;86.10;;;;;;5115257;28;20033;-72
2021/04/19 10:00:36;;;;;;;13.93;10.93;;;13.60;82.90;;;;;;5133730;28;20416;-71
2021/04/19 10:03:02;;;;;;;10.48;9.35;;;13.40;86.00;;;;;;5133356;28;20057;-74
2021/04/19 10:05:29;;;;;;;8.73;7.75;;;13.30;85.50;;;;;;5133559;28;20023;-74
2021/04/19 10:08:00;;;;;;;11.65;8.75;;;13.30;82.20;;;;;;5115092;28;20593;-72
2021/04/19 10:10:27;;;;;;;10.80;9.13;;;13.30;80.80;;;;;;5133671;28;20048;-73
2021/04/19 10:12:53;;;;;;;14.55;11.43;;;13.40;81.10;;;;;;5133640;28;20031;-72
2021/04/19 10:15:22;;;;;;;15.68;10.80;;;13.60;80.60;;;;;;5133157;28;20409;-70
2021/04/19 10:17:49;;;;;;;13.70;10.15;;;13.70;82.70;;;;;;5133306;27;20223;-70
2021/04/19 10:20:25;;;;;;;9.95;8.63;;;13.60;80.80;;;;;;5136317;27;20031;-72
2021/04/19 10:23:12;;;;;;;11.82;8.52;;;13.50;81.00;;;;;;5137297;27;20020;-69
2021/04/19 10:25:50;;;;;;;9.88;7.95;;;13.70;82.00;;;;;;5118814;27;20420;-70
2021/04/19 10:28:32;;;;;;;9.45;8.02;;;13.90;80.40;;;;;;5137326;27;20047;-70
2021/04/19 10:31:16;;;;;;;10.30;8.60;;;14.00;78.20;;;;;;5118838;27;20391;-69
2021/04/19 10:33:44;;;;;;;10.15;8.55;;;14.30;78.80;;;;;;5118613;27;20035;-72
2021/04/19 10:36:10;;;;;;;17.25;11.40;;;14.30;77.10;;;;;;5118399;27;20035;-73
2021/04/19 10:38:37;;;;;;;14.25;9.85;;;14.30;75.60;;;;;;5118450;27;20157;-73
2021/04/19 10:41:04;;;;;;;12.10;9.90;;;14.50;76.70;;;;;;5136893;27;20023;-71
2021/04/19 10:43:30;;;;;;;16.27;10.00;;;14.70;74.10;;;;;;5137099;27;20842;-70
2021/04/19 10:45:55;;;;;;;10.68;6.93;;;14.70;77.20;;;;;;5136658;27;20027;-73
2021/04/19 10:48:24;;;;;;;8.25;7.00;;;14.70;74.10;;;;;;5136099;27;20035;-72
2021/04/19 10:50:52;;;;;;;9.23;7.25;;;14.50;71.70;;;;;;5134661;27;20410;-71
2021/04/19 10:53:40;;;;;;;8.75;7.35;;;14.30;72.50;;;;;;5134958;27;20031;-71
2021/04/19 10:56:07;;;;;;;10.63;7.07;;;14.30;75.20;;;;;;5135187;27;20038;-71
2021/04/19 10:58:38;;;;;;;8.38;7.38;;;14.90;71.40;;;;;;5135194;27;20019;-72
2021/04/19 11:01:05;;;;;;;8.85;6.82;;;;;;;;;;5135527;27;20055;-71
2021/04/19 11:03:36;;;;;;;13.15;7.30;;;;;;;;;;5135291;27;20547;-69
2021/04/19 11:06:04;;;;;;;9.52;7.00;;;;;;;;;;5136133;27;20064;-71
2021/04/19 11:08:49;;;;;;;12.35;9.05;;;;;;;;;;5136129;27;20090;-69
2021/04/19 11:11:35;;;;;;;9.65;7.68;;;;;;;;;;5136382;27;20041;-70
2021/04/19 11:14:07;;;;;;;6.85;4.97;;;;;;;;;;5100701;27;20042;-67
2021/04/19 11:16:34;;;;;;;6.40;5.70;;;;;;;;;;5117748;27;20043;-72
2021/04/19 11:19:00;;;;;;;5.57;5.07;;;;;;;;;;5136302;27;20015;-71
2021/04/19 11:21:30;;;;;;;6.38;5.63;;;;;;;;;;5136236;27;20035;-68
2021/04/19 11:24:05;;;;;;;7.32;5.25;;;;;;;;;;5136192;27;20109;-70
2021/04/19 11:26:33;;;;;;;6.53;5.47;;;;;;;;;;5135685;27;20050;-70
2021/04/19 11:28:59;;;;;;;7.65;5.90;;;;;;;;;;5136041;27;20102;-69
2021/04/19 11:31:25;;;;;;;5.82;5.22;;;16.30;60.10;;;;;;5117167;27;20483;-70
2021/04/19 11:34:15;;;;;;;7.22;5.60;;;16.20;60.40;;;;;;5136265;27;20034;-70
2021/04/19 11:36:46;;;;;;;6.00;5.32;;;16.20;59.00;;;;;;5117271;27;20031;-69
2021/04/19 11:39:16;;;;;;;7.70;6.55;;;16.00;64.00;;;;;;5117451;27;20375;-71
2021/04/19 11:41:43;;;;;;;6.63;5.20;;;15.90;61.70;;;;;;5117059;27;20034;-70
2021/04/19 11:44:09;;;;;;;6.00;5.40;;;15.50;63.00;;;;;;5117317;27;20033;-70
2021/04/19 11:46:41;;;;;;;8.77;6.15;;;15.40;63.70;;;;;;5117210;27;20390;-71
2021/04/19 11:49:13;;;;;;;;;;;15.00;63.20;;;;;;5136064;27;20348;-70
2021/04/19 11:51:39;;;;;;;8.32;5.82;;;15.30;64.80;;;;;;5117061;27;19903;-70
2021/04/19 11:54:05;;;;;;;8.18;6.68;;;15.40;66.20;;;;;;5135346;27;20038;-69
2021/04/19 11:56:31;;;;;;;7.70;6.45;;;15.40;62.70;;;;;;5135252;27;20039;-68
2021/04/19 11:58:56;;;;;;;7.10;6.40;;;15.30;63.70;;;;;;5116933;27;20031;-69
2021/04/19 12:01:22;;;;;;;7.45;5.60;;;15.50;62.30;;;;;;5135320;27;20027;-67
2021/04/19 12:03:51;;;;;;;7.45;6.72;;;15.50;62.00;;;;;;5135009;27;20467;-70
2021/04/19 12:06:18;;;;;;;7.05;6.35;;;15.70;64.70;;;;;;5116694;27;20031;-67
2021/04/19 12:08:45;;;;;;;7.45;6.63;;;15.80;62.40;;;;;;5135212;27;20019;-68
2021/04/19 12:11:18;;;;;;;8.30;6.22;;;16.10;59.00;;;;;;5132061;27;20041;-69
2021/04/19 12:13:45;;;;;;;6.55;5.88;;;16.30;58.90;;;;;;5113423;27;20023;-68
2021/04/19 12:16:12;;;;;;;6.63;5.68;;;16.40;57.90;;;;;;5116614;27;20099;-68
2021/04/19 12:18:38;;;;;;;7.18;5.70;;;16.60;55.80;;;;;;5114067;27;20697;-69
2021/04/19 12:21:05;;;;;;;6.35;5.75;;;16.80;55.70;;;;;;5114016;27;20029;-66
2021/04/19 12:23:31;;;;;;;10.82;7.25;;;16.70;57.50;;;;;;5133101;27;20067;-70
2021/04/19 12:25:58;;;;;;;10.18;7.60;;;16.50;59.40;;;;;;5115481;27;20479;-69
2021/04/19 12:28:25;;;;;;;14.50;8.95;;;16.20;60.50;;;;;;5092418;28;20135;-67
2021/04/19 12:30:53;;;;;;;12.05;8.32;;;15.90;62.00;;;;;;5092584;28;20059;-67
2021/04/19 12:33:19;;;;;;;12.80;8.98;;;15.80;62.10;;;;;;5094122;28;20095;-67
2021/04/19 12:35:45;;;;;;;12.85;9.75;;;15.80;64.10;;;;;;5093750;28;20111;-67
2021/04/19 12:38:12;;;;;;;12.82;10.43;;;15.70;66.80;;;;;;5092330;28;20051;-68
2021/04/19 12:40:39;;;;;;;12.05;9.85;;;15.70;68.20;;;;;;5093443;28;20103;-66
2021/04/19 12:43:05;;;;;;;13.38;9.80;;;15.70;69.00;;;;;;5091482;28;20028;-66
2021/04/19 12:45:32;;;;;;;12.93;8.85;;;15.70;70.60;;;;;;5092204;28;20024;-66
2021/04/19 12:48:00;;;;;;;10.40;9.30;;;15.60;70.70;;;;;;5092856;28;20096;-66
2021/04/19 12:50:26;;;;;;;8.10;7.18;;;15.50;67.20;;;;;;5092566;28;20077;-67
2021/04/19 12:52:51;;;;;;;11.23;9.50;;;15.50;67.60;;;;;;5091451;28;20486;-68
2021/04/19 12:55:17;;;;;;;9.90;8.73;;;15.40;71.40;;;;;;5093385;28;20028;-69